createdAt,value
2022-12-08T00:04:09.008Z,90.38
2022-12-08T00:09:22.144Z,90.52
2022-12-08T00:14:36.600Z,90.64
2022-12-08T00:19:39.913Z,90.16
2022-12-08T00:24:45.620Z,90.07
2022-12-08T00:29:48.496Z,90.21
2022-12-08T00:34:51.236Z,90.29
2022-12-08T00:39:53.969Z,90.15
2022-12-08T00:44:56.708Z,90.18
2022-12-08T00:49:59.449Z,89.78
2022-12-08T00:55:02.590Z,89.67
2022-12-08T01:00:06.945Z,89.68
2022-12-08T01:05:09.903Z,89.57
2022-12-08T01:10:12.707Z,89.71
2022-12-08T01:15:15.669Z,89.21
2022-12-08T01:20:18.544Z,89.07
2022-12-08T01:25:21.293Z,89.05
2022-12-08T01:30:24.068Z,89.15
2022-12-08T01:35:26.853Z,89.38
2022-12-08T01:40:29.623Z,89.35
2022-12-08T01:45:32.676Z,89.26
2022-12-08T01:50:36.024Z,89.05
2022-12-08T01:55:43.696Z,89.17
2022-12-08T02:00:46.651Z,89.17
2022-12-08T02:05:49.528Z,89.51
2022-12-08T02:10:53.189Z,89.21
2022-12-08T02:16:01.121Z,89.15
2022-12-08T02:21:35.981Z,89.22
2022-12-08T02:27:06.250Z,89.54
2022-12-08T02:32:24.060Z,89.15
2022-12-08T02:37:32.634Z,89.54
2022-12-08T02:42:44.549Z,89.83
2022-12-08T02:47:48.065Z,90.29
2022-12-08T02:52:50.811Z,90.82
2022-12-08T02:58:21.753Z,90.98
2022-12-08T03:03:46.576Z,90.95
2022-12-08T03:08:58.683Z,91.04
2022-12-08T03:14:05.262Z,91.22
2022-12-08T03:19:25.835Z,91.22
2022-12-08T03:24:32.455Z,91.44
2022-12-08T03:29:36.056Z,91.79
2022-12-08T03:34:42.464Z,91.96
2022-12-08T03:39:45.330Z,92.06
2022-12-08T03:44:48.059Z,92.53
2022-12-08T03:49:50.812Z,92.99
2022-12-08T03:54:53.676Z,93.08
2022-12-08T03:59:56.461Z,93.15
2022-12-08T04:04:59.192Z,93.34
2022-12-08T04:10:02.214Z,93.62
2022-12-08T04:15:05.796Z,93.71
2022-12-08T04:20:08.888Z,93.87
2022-12-08T04:25:11.660Z,94.03
2022-12-08T04:30:14.515Z,93.81
2022-12-08T04:35:17.370Z,93.71
2022-12-08T04:40:20.349Z,93.49
2022-12-08T04:45:23.149Z,93.35
2022-12-08T04:50:26.781Z,93.03
2022-12-08T04:55:29.538Z,93.15
2022-12-08T05:00:32.301Z,92.43
2022-12-08T05:05:35.464Z,92.54
2022-12-08T05:10:38.919Z,92.54
2022-12-08T05:15:41.651Z,92.51
2022-12-08T05:20:44.433Z,92.26
2022-12-08T05:25:47.171Z,91.67
2022-12-08T05:30:50.222Z,91.91
2022-12-08T05:35:53.019Z,92.09
2022-12-08T05:40:55.788Z,91.76
2022-12-08T05:45:58.745Z,91.98
2022-12-08T05:51:02.195Z,91.76
2022-12-08T05:56:05.213Z,90.89
2022-12-08T06:01:08.511Z,91.13
2022-12-08T06:06:11.281Z,90.89
2022-12-08T06:11:33.273Z,90.67
2022-12-08T06:16:36.414Z,90.80
2022-12-08T06:21:39.269Z,90.48
2022-12-08T06:26:42.605Z,89.73
2022-12-08T06:31:45.463Z,89.22
2022-12-08T06:36:48.407Z,88.29
2022-12-08T06:42:17.347Z,88.10
2022-12-08T06:47:26.202Z,88.34
2022-12-08T06:52:29.865Z,87.87
2022-12-08T06:57:32.694Z,87.74
2022-12-08T07:02:35.534Z,86.88
2022-12-08T07:07:38.627Z,87.16
2022-12-08T07:12:41.606Z,87.31
2022-12-08T07:17:44.330Z,86.64
2022-12-08T07:22:51.700Z,90.14
2022-12-08T07:27:54.506Z,90.70
2022-12-08T07:32:57.267Z,90.28
2022-12-08T07:38:00.014Z,88.99
2022-12-08T07:43:02.814Z,87.05
2022-12-08T07:48:06.102Z,86.72
2022-12-08T07:53:09.159Z,85.72
2022-12-08T07:58:12.225Z,85.61
2022-12-08T08:03:15.164Z,85.92
2022-12-08T08:08:19.148Z,83.12
2022-12-08T08:13:22.053Z,82.46
2022-12-08T08:18:24.818Z,81.95
2022-12-08T08:23:28.244Z,80.01
2022-12-08T08:28:31.008Z,78.42
2022-12-08T08:33:33.802Z,78.65
2022-12-08T08:38:42.799Z,78.16
2022-12-08T08:43:45.736Z,78.07
2022-12-08T08:48:48.491Z,78.39
2022-12-08T08:53:51.786Z,76.61
2022-12-08T08:58:55.105Z,76.26
2022-12-08T09:03:58.357Z,76.23
2022-12-08T09:09:01.538Z,75.89
2022-12-08T09:14:04.603Z,76.11
2022-12-08T09:19:07.531Z,75.81
2022-12-08T09:24:15.698Z,73.91
2022-12-08T09:29:18.678Z,73.71
2022-12-08T09:34:22.438Z,73.81
2022-12-08T09:39:25.490Z,73.56
2022-12-08T09:44:49.924Z,74.01
2022-12-08T09:50:01.710Z,71.97
2022-12-08T09:55:14.659Z,74.30
2022-12-08T10:00:18.234Z,75.15
2022-12-08T10:05:24.668Z,74.35
2022-12-08T10:10:43.300Z,72.93
2022-12-08T10:16:27.997Z,74.32
2022-12-08T10:21:34.020Z,74.62
2022-12-08T10:26:37.052Z,73.85
2022-12-08T10:31:39.969Z,74.56
2022-12-08T10:36:58.936Z,74.69
2022-12-08T10:42:14.803Z,73.93
2022-12-08T10:47:24.173Z,73.49
2022-12-08T10:52:27.876Z,73.00
2022-12-08T10:57:30.780Z,73.22
2022-12-08T11:02:34.154Z,72.65
2022-12-08T11:07:47.702Z,73.94
2022-12-08T11:12:51.050Z,73.08
2022-12-08T11:18:06.886Z,72.95
2022-12-08T11:23:21.535Z,73.49
2022-12-08T11:28:25.760Z,72.39
2022-12-08T11:33:29.516Z,72.29
2022-12-08T11:38:33.939Z,72.67
2022-12-08T11:43:48.134Z,74.09
2022-12-08T11:49:05.629Z,74.45
2022-12-08T11:54:25.126Z,74.22
2022-12-08T11:59:44.572Z,73.77
2022-12-08T12:05:47.525Z,74.02
2022-12-08T12:11:03.300Z,73.80
2022-12-08T12:16:12.064Z,73.82
2022-12-08T12:21:22.878Z,74.04
2022-12-08T12:26:29.734Z,74.16
2022-12-08T12:31:37.206Z,74.25
2022-12-08T12:37:03.465Z,74.39
2022-12-08T12:42:06.371Z,74.98
2022-12-08T12:47:51.010Z,75.56
2022-12-08T12:53:27.528Z,76.26
2022-12-08T12:58:30.307Z,77.08
2022-12-08T13:03:33.784Z,77.82
2022-12-08T13:08:36.636Z,79.09
2022-12-08T13:14:00.406Z,80.34
2022-12-08T13:19:14.048Z,81.42
2022-12-08T13:24:26.059Z,82.24
2022-12-08T13:29:30.862Z,82.96
2022-12-08T13:34:56.392Z,83.62
2022-12-08T13:40:34.463Z,84.30
2022-12-08T13:46:41.969Z,84.72
2022-12-08T13:57:05.563Z,85.89
2022-12-08T14:02:17.833Z,86.19
2022-12-08T14:07:21.595Z,86.87
2022-12-08T14:12:30.654Z,87.21
2022-12-08T14:17:34.163Z,87.82
2022-12-08T14:22:38.953Z,88.22
2022-12-08T14:27:42.519Z,89.06
2022-12-08T14:32:50.104Z,89.82
2022-12-08T14:38:02.785Z,89.85
2022-12-08T14:43:08.908Z,90.37
2022-12-08T14:48:30.867Z,90.70
2022-12-08T14:53:37.779Z,90.81
2022-12-08T14:58:41.155Z,91.02
2022-12-08T15:03:50.746Z,91.38
2022-12-08T15:09:01.166Z,91.69
2022-12-08T15:14:04.086Z,92.18
2022-12-08T15:19:16.856Z,92.31
2022-12-08T15:24:24.127Z,92.39
2022-12-08T15:29:28.329Z,92.57
2022-12-08T15:34:31.881Z,92.73
2022-12-08T15:39:37.332Z,92.89
2022-12-08T15:44:42.525Z,92.82
2022-12-08T15:49:46.711Z,92.99
2022-12-08T15:54:49.965Z,93.03
2022-12-08T15:59:53.480Z,93.20
2022-12-08T16:10:22.573Z,92.93
2022-12-08T16:27:01.254Z,93.07
2022-12-08T16:31:43.115Z,93.07
2022-12-08T16:36:45.903Z,93.32
2022-12-08T16:42:07.541Z,93.05
2022-12-08T16:47:11.483Z,93.03
2022-12-08T16:52:14.301Z,93.36
2022-12-08T16:57:17.074Z,93.21
2022-12-08T17:02:22.232Z,93.14
2022-12-08T17:07:25.345Z,93.01
2022-12-08T17:12:28.160Z,93.18
2022-12-08T17:17:32.751Z,93.07
2022-12-08T17:22:35.859Z,93.01
2022-12-08T17:27:39.750Z,93.45
2022-12-08T17:32:43.171Z,93.50
2022-12-08T17:37:46.037Z,93.45
2022-12-08T17:42:48.774Z,93.50
2022-12-08T17:47:51.536Z,93.58
2022-12-08T17:52:54.417Z,93.38
2022-12-08T17:57:57.296Z,93.30
2022-12-08T18:03:00.108Z,93.25
2022-12-08T18:08:03.078Z,92.89
2022-12-08T18:13:08.700Z,92.66
2022-12-08T18:18:11.471Z,92.55
2022-12-08T18:23:17.453Z,92.66
2022-12-08T18:28:20.323Z,92.30
2022-12-08T18:33:23.072Z,92.32
2022-12-08T18:38:25.842Z,92.43
2022-12-08T18:43:28.600Z,92.29
2022-12-08T18:48:31.454Z,92.31
2022-12-08T18:53:34.270Z,92.07
2022-12-08T18:58:37.081Z,91.98
2022-12-08T19:03:45.656Z,91.99
2022-12-08T19:09:03.270Z,92.13
2022-12-08T19:14:07.420Z,92.43
2022-12-08T19:19:10.215Z,92.38
2022-12-08T19:24:13.067Z,92.10
2022-12-08T19:29:15.873Z,92.11
2022-12-08T19:34:18.984Z,92.42
2022-12-08T19:39:42.396Z,92.33
2022-12-08T19:44:54.452Z,92.56
2022-12-08T19:50:17.266Z,92.74
2022-12-08T19:55:20.623Z,92.81
2022-12-08T20:00:23.677Z,92.63
2022-12-08T20:05:26.509Z,92.54
2022-12-08T20:10:35.591Z,92.41
2022-12-08T20:15:38.466Z,92.42
2022-12-08T20:20:42.404Z,92.23
2022-12-08T20:25:46.213Z,92.38
2022-12-08T20:30:49.722Z,92.26
2022-12-08T20:36:05.453Z,92.14
2022-12-08T20:41:09.582Z,91.94
2022-12-08T20:46:14.712Z,92.26
2022-12-08T20:51:19.732Z,92.56
2022-12-08T20:56:24.483Z,92.85
2022-12-08T21:01:28.770Z,93.19
2022-12-08T21:06:32.425Z,93.02
2022-12-08T21:11:35.902Z,93.49
2022-12-08T21:16:38.930Z,93.54
2022-12-08T21:21:41.975Z,93.42
2022-12-08T21:26:44.829Z,93.25
2022-12-08T21:31:47.623Z,93.49
2022-12-08T21:36:51.061Z,93.67
2022-12-08T21:42:13.029Z,93.80
2022-12-08T21:47:16.332Z,94.02
2022-12-08T21:52:19.287Z,94.16
2022-12-08T21:57:22.188Z,94.19
2022-12-08T22:02:25.647Z,94.53
2022-12-08T22:07:28.657Z,95.01
2022-12-08T22:12:31.453Z,95.42
2022-12-08T22:17:39.904Z,95.69
2022-12-08T22:22:44.031Z,95.49
2022-12-08T22:27:47.129Z,95.56
2022-12-08T22:32:50.120Z,95.67
2022-12-08T22:37:53.529Z,95.89
2022-12-08T22:42:56.688Z,96.00
2022-12-08T22:47:59.787Z,95.58
2022-12-08T22:53:03.136Z,95.77
2022-12-08T22:58:06.034Z,96.23
2022-12-08T23:03:08.955Z,96.10
2022-12-08T23:08:15.964Z,96.48
2022-12-08T23:13:19.630Z,96.87
2022-12-08T23:18:22.663Z,96.87
2022-12-08T23:23:25.561Z,96.88
2022-12-08T23:34:02.720Z,97.15
2022-12-08T23:39:06.070Z,96.95
2022-12-08T23:44:09.465Z,97.03
2022-12-08T23:49:12.430Z,97.05
2022-12-08T23:54:15.548Z,97.22
2022-12-08T23:59:18.411Z,97.33
